Picacho — EB2438 — position and weather

sailwx.info

Track history (hours):
 
Tides and Currents Weather Stations Pressure Air Temp Water Temp Dewpoint Dewpoint Depression Visibility Wind Speed Wind Dir Waves Ship Positions

Picacho

Last reported at 2018-Jun-18 16:44 UTC. Time now 2018-Jun-22 19:10 UTC.
Position N 28°09' W 015°26'.

Length 24 m.

Type: Tug. MMSI: 224091140.

Date/timePositionNaut miles runAvg speedWind from/ knotsBaromVisibWave heightAir tempDewpointWater temp
2018-Jun-18 16:44N 28°09' W 015°26'0 0.0
2018-Jun-18 16:29N 28°09' W 015°26'0 0.0
2018-Jun-18 15:57N 28°09' W 015°26'0 0.0
2018-Jun-18 11:33N 28°09' W 015°26'0 0.0
2018-Jun-18 11:18N 28°09' W 015°26'0 0.0
2018-Jun-18 10:36N 28°09' W 015°26'0 0.0
2018-Jun-18 10:24N 28°09' W 015°26'0 0.0
2018-Jun-18 08:36N 28°09' W 015°26'  
2018-Jun-15 16:37N 28°01' W 015°22'1 7.7
2018-Jun-15 16:27N 27°60' W 015°21'4 7.4
2018-Jun-15 15:56N 27°56' W 015°20'3 0.7
2018-Jun-15 11:25N 27°53' W 015°21'3 6.0
2018-Jun-15 10:56N 27°55' W 015°19'3 6.0
2018-Jun-15 10:26N 27°58' W 015°18'3 6.3
2018-Jun-15 09:55N 28°01' W 015°19'2 5.6
2018-Jun-15 09:30N 28°04' W 015°20'3 5.7
2018-Jun-15 09:00N 28°06' W 015°22'2 4.7
2018-Jun-15 08:30N 28°07' W 015°25'2 3.3
2018-Jun-15 07:55N 28°09' W 015°25'0 0.0
2018-Jun-14 09:50N 28°09' W 015°25'0 0.0
2018-Jun-14 09:23N 28°09' W 015°25'0 0.0
2018-Jun-14 08:53N 28°09' W 015°25'0 0.0
2018-Jun-14 08:23N 28°09' W 015°25'0 0.0
2018-Jun-14 07:53N 28°09' W 015°25'0 0.0
2018-Jun-14 07:23N 28°09' W 015°25'0 0.7
2018-Jun-14 06:59N 28°09' W 015°25'  
Track history (hours):
 
Tides and Currents Weather Stations Pressure Air Temp Water Temp Dewpoint Dewpoint Depression Visibility Wind Speed Wind Dir Waves Ship Positions

Picacho

Last reported at 2018-Jun-18 16:44 UTC. Time now 2018-Jun-22 19:10 UTC.
Position N 28°09' W 015°26'.

Length 24 m.

Type: Tug. MMSI: 224091140.

Date/timePositionNaut miles runAvg speedWind from/ knotsBaromVisibWave heightAir tempDewpointWater temp
2018-Jun-18 16:44N 28°09' W 015°26'0 0.0
2018-Jun-18 16:29N 28°09' W 015°26'0 0.0
2018-Jun-18 15:57N 28°09' W 015°26'0 0.0
2018-Jun-18 11:33N 28°09' W 015°26'0 0.0
2018-Jun-18 11:18N 28°09' W 015°26'0 0.0
2018-Jun-18 10:36N 28°09' W 015°26'0 0.0
2018-Jun-18 10:24N 28°09' W 015°26'0 0.0
2018-Jun-18 08:36N 28°09' W 015°26'  
2018-Jun-15 16:37N 28°01' W 015°22'1 7.7
2018-Jun-15 16:27N 27°60' W 015°21'4 7.4
2018-Jun-15 15:56N 27°56' W 015°20'3 0.7
2018-Jun-15 11:25N 27°53' W 015°21'3 6.0
2018-Jun-15 10:56N 27°55' W 015°19'3 6.0
2018-Jun-15 10:26N 27°58' W 015°18'3 6.3
2018-Jun-15 09:55N 28°01' W 015°19'2 5.6
2018-Jun-15 09:30N 28°04' W 015°20'3 5.7
2018-Jun-15 09:00N 28°06' W 015°22'2 4.7
2018-Jun-15 08:30N 28°07' W 015°25'2 3.3
2018-Jun-15 07:55N 28°09' W 015°25'0 0.0
2018-Jun-14 09:50N 28°09' W 015°25'0 0.0
2018-Jun-14 09:23N 28°09' W 015°25'0 0.0
2018-Jun-14 08:53N 28°09' W 015°25'0 0.0
2018-Jun-14 08:23N 28°09' W 015°25'0 0.0
2018-Jun-14 07:53N 28°09' W 015°25'0 0.0
2018-Jun-14 07:23N 28°09' W 015°25'0 0.7
2018-Jun-14 06:59N 28°09' W 015°25'  

Dump ship's entire track history